Time;durP1;ratioP1;P1;durP2;ratioP2;P2;SDS_P1;SDS_P2;PMS_P1;PMS_P2;Temp;Humidity;BMP_temperature;BMP_pressure;BME280_temperature;BME280_humidity;BME280_pressure;Samples;Min_cycle;Max_cycle;Signal;HPM_P1;HPM_P2
2023/09/12 00:00:44;;;;;;;1.85;1.70;;;;;;;12.48;72.57;96634.94;5093374;28;20047;-70
2023/09/12 00:03:11;;;;;;;1.90;1.80;;;;;;;12.51;72.92;96631.31;5093340;28;20051;-65
2023/09/12 00:05:38;;;;;;;2.95;1.30;;;;;;;12.51;72.62;96633.94;5093259;28;20040;-63
2023/09/12 00:08:06;;;;;;;2.30;1.50;;;;;;;12.44;72.03;96635.13;5092939;28;20087;-69
2023/09/12 00:10:34;;;;;;;2.67;1.60;;;;;;;12.41;73.20;96624.78;5093288;28;20101;-69
2023/09/12 00:13:02;;;;;;;3.83;1.88;;;;;;;12.32;75.24;96631.28;5093269;28;20062;-69
2023/09/12 00:15:29;;;;;;;1.85;1.70;;;;;;;12.26;75.80;96640.28;5093058;28;20101;-66
2023/09/12 00:17:56;;;;;;;1.92;1.65;;;;;;;12.31;75.19;96640.09;5092785;28;20131;-67
2023/09/12 00:20:23;;;;;;;2.63;1.60;;;;;;;12.31;74.73;96637.47;5093028;28;20127;-69
2023/09/12 00:22:50;;;;;;;3.50;1.70;;;;;;;12.26;74.78;96643.72;5093103;28;20414;-63
2023/09/12 00:25:18;;;;;;;3.85;2.40;;;;;;;12.24;74.05;96637.72;5093145;28;20048;-68
2023/09/12 00:27:46;;;;;;;2.45;1.55;;;;;;;12.25;73.66;96642.03;5093018;28;20135;-69
2023/09/12 00:30:16;;;;;;;3.95;1.58;;;;;;;12.24;73.35;96637.72;5093016;28;20079;-67
2023/09/12 00:32:43;;;;;;;3.42;1.65;;;;;;;12.27;73.96;96636.72;5092922;28;20414;-68
2023/09/12 00:35:10;;;;;;;4.25;1.90;;;;;;;12.21;75.44;96637.00;5092975;28;20075;-68
2023/09/12 00:37:37;;;;;;;4.75;1.65;;;;;;;12.24;74.70;96642.97;5093027;28;20134;-66
2023/09/12 00:40:06;;;;;;;5.40;1.65;;;;;;;12.22;74.26;96636.91;5092942;28;20051;-65
2023/09/12 00:42:33;;;;;;;3.40;1.63;;;;;;;12.21;73.92;96644.84;5092913;28;20071;-65
2023/09/12 00:45:01;;;;;;;1.88;1.48;;;;;;;12.19;73.62;96642.28;5093006;28;20089;-68
2023/09/12 00:47:29;;;;;;;2.42;1.85;;;;;;;12.22;73.73;96641.34;5092869;28;20498;-65
2023/09/12 00:49:59;;;;;;;1.65;1.55;;;;;;;12.22;73.38;96644.78;5092771;28;20519;-69
2023/09/12 00:52:27;;;;;;;4.57;1.58;;;;;;;12.26;73.77;96641.09;5092732;28;20044;-65
2023/09/12 00:54:55;;;;;;;3.38;2.00;;;;;;;12.21;73.77;96643.09;5092765;28;20101;-65
2023/09/12 00:57:22;;;;;;;2.95;1.92;;;;;;;12.17;73.52;96645.91;5092953;28;20074;-71
2023/09/12 00:59:50;;;;;;;3.42;1.67;;;;;;;12.18;73.46;96644.97;5092716;28;20048;-72
2023/09/12 01:02:19;;;;;;;3.92;1.77;;;;;;;12.23;73.73;96645.66;5092718;28;20048;-61
2023/09/12 01:04:47;;;;;;;1.75;1.65;;;;;;;12.23;73.07;96651.75;5092703;28;20047;-67
2023/09/12 01:07:14;;;;;;;2.40;1.58;;;;;;;12.21;72.82;96644.84;5092788;28;20052;-62
2023/09/12 01:09:41;;;;;;;2.20;1.27;;;;;;;12.18;72.59;96644.97;5092555;28;20040;-64
2023/09/12 01:12:14;;;;;;;2.22;1.58;;;;;;;12.13;72.55;96646.03;5092641;28;20147;-69
2023/09/12 01:14:41;;;;;;;2.53;1.77;;;;;;;12.12;73.62;96648.72;5092562;28;20136;-71
2023/09/12 01:17:08;;;;;;;1.95;1.50;;;;;;;12.15;73.99;96643.34;5092677;28;20097;-67
2023/09/12 01:19:36;;;;;;;3.13;1.50;;;;;;;12.18;74.17;96645.84;5092638;28;20117;-65
2023/09/12 01:22:28;;;;;;;2.63;1.35;;;;;;;12.15;73.37;96637.25;5092534;28;20135;-68
2023/09/12 01:25:38;;;;;;;1.60;1.42;;;;;;;12.11;73.30;96644.41;5092691;28;20044;-68
2023/09/12 01:28:10;;;;;;;2.10;1.50;;;;;;;12.10;73.26;96642.72;5061601;28;20528;-69
2023/09/12 01:30:39;;;;;;;1.85;1.40;;;;;;;12.09;72.89;96644.47;5094136;28;20048;-72
2023/09/12 01:33:07;;;;;;;2.60;1.40;;;;;;;12.10;72.79;96643.53;5096163;28;20048;-68
2023/09/12 01:35:34;;;;;;;4.13;1.63;;;;;;;12.10;73.18;96643.53;5095929;28;20217;-68
2023/09/12 01:38:01;;;;;;;1.40;1.25;;;;;;;12.10;73.55;96647.97;5095840;28;20097;-67
2023/09/12 01:40:35;;;;;;;2.20;1.63;;;;;;;12.14;73.51;96646.91;5095900;28;20508;-70
2023/09/12 01:43:05;;;;;;;3.17;1.65;;;;;;;12.13;72.49;96638.19;5095799;28;20127;-68
2023/09/12 01:45:34;;;;;;;1.75;1.52;;;;;;;12.10;72.57;96640.09;5095910;28;20047;-70
2023/09/12 01:48:02;;;;;;;1.67;1.40;;;;;;;12.09;72.59;96643.59;5095849;28;20083;-70
2023/09/12 01:50:29;;;;;;;1.88;1.45;;;;;;;12.09;72.76;96639.22;5095826;28;20040;-68
2023/09/12 01:52:57;;;;;;;1.80;1.50;;;;;;;12.13;73.54;96640.78;5095846;28;20063;-64
2023/09/12 01:55:25;;;;;;;2.75;1.60;;;;;;;12.14;73.54;96646.91;5095661;28;20048;-66
2023/09/12 01:57:53;;;;;;;3.20;1.55;;;;;;;12.13;73.74;96643.41;5095639;28;20173;-67
2023/09/12 02:00:20;;;;;;;10.68;1.70;;;;;;;12.08;73.88;96644.53;5095671;28;20048;-69
2023/09/12 02:02:49;;;;;;;4.25;1.70;;;;;;;12.07;73.83;96642.84;5095491;28;20047;-67
2023/09/12 02:05:18;;;;;;;3.22;2.22;;;;;;;12.06;74.28;96638.47;5095428;28;20058;-68
2023/09/12 02:07:46;;;;;;;1.80;1.55;;;;;;;12.09;74.22;96643.59;5095232;28;20090;-64
2023/09/12 02:10:13;;;;;;;2.72;1.60;;;;;;;12.07;74.26;96641.06;5095406;28;20119;-69
2023/09/12 02:12:40;;;;;;;5.28;1.58;;;;;;;12.07;73.88;96641.06;5095219;28;20117;-71
2023/09/12 02:15:08;;;;;;;1.55;1.45;;;;;;;12.05;73.66;96647.25;5095198;28;20101;-68
2023/09/12 02:17:35;;;;;;;4.78;1.23;;;;;;;12.05;73.22;96639.38;5095129;28;20066;-65
2023/09/12 02:20:05;;;;;;;2.17;1.60;;;;;;;12.00;73.01;96645.69;5095325;28;20079;-68
2023/09/12 02:22:32;;;;;;;1.65;1.50;;;;;;;11.97;73.74;96645.81;5095328;28;20051;-66
2023/09/12 02:25:00;;;;;;;3.40;1.48;;;;;;;11.98;73.82;96642.25;5095175;28;20093;-69
2023/09/12 02:27:27;;;;;;;2.75;1.65;;;;;;;11.98;74.17;96644.88;5094938;28;20094;-66
2023/09/12 02:29:55;;;;;;;1.60;1.50;;;;;;;11.99;74.55;96644.00;5094978;28;20452;-68
2023/09/12 02:32:22;;;;;;;1.80;1.40;;;;;;;12.00;74.15;96647.44;5095028;28;20457;-67
2023/09/12 02:34:48;;;;;;;1.52;1.40;;;;;;;11.97;74.52;96640.56;5094828;28;20123;-66
2023/09/12 02:37:17;;;;;;;1.52;1.30;;;;;;;11.98;74.87;96641.44;5094743;28;20583;-66
2023/09/12 02:39:44;;;;;;;1.98;1.27;;;;;;;11.94;74.90;96640.69;5094861;28;20040;-69
2023/09/12 02:42:11;;;;;;;2.38;1.40;;;;;;;11.91;75.11;96640.81;5094426;28;20044;-65
2023/09/12 02:44:38;;;;;;;1.90;1.35;;;;;;;11.84;75.41;96637.63;5094704;28;20051;-69
2023/09/12 02:47:05;;;;;;;2.70;1.42;;;;;;;11.78;76.22;96639.63;5094929;28;20048;-71
2023/09/12 02:49:32;;;;;;;1.63;1.50;;;;;;;11.75;76.74;96635.38;5094663;28;20052;-66
2023/09/12 02:51:59;;;;;;;1.77;1.67;;;;;;;11.75;75.47;96636.19;5094579;28;20048;-64
2023/09/12 02:54:28;;;;;;;2.70;1.60;;;;;;;11.72;75.10;96644.22;5094371;28;20044;-68
2023/09/12 02:56:55;;;;;;;2.60;1.70;;;;;;;11.72;75.75;96641.59;5094492;28;20073;-65
2023/09/12 02:59:22;;;;;;;3.72;1.60;;;;;;;11.74;76.02;96641.53;5094503;28;20048;-71
2023/09/12 03:01:49;;;;;;;1.77;1.60;;;;;;;11.75;76.45;96645.84;5094277;28;20091;-67
2023/09/12 03:04:16;;;;;;;1.30;1.20;;;;;;;11.77;76.78;96641.38;5094356;28;20072;-70
2023/09/12 03:06:44;;;;;;;3.80;1.30;;;;;;;11.78;75.90;96644.88;5094166;28;20056;-66
2023/09/12 03:09:11;;;;;;;2.58;1.52;;;;;;;11.75;75.17;96644.06;5093961;28;20380;-66
2023/09/12 03:11:39;;;;;;;1.40;1.30;;;;;;;11.72;74.76;96640.72;5094285;28;20083;-65
2023/09/12 03:14:07;;;;;;;1.60;1.30;;;;;;;11.70;74.87;96637.31;5094181;28;20401;-68
2023/09/12 03:16:36;;;;;;;2.25;1.40;;;;;;;11.70;74.76;96638.19;5093992;28;20048;-66
2023/09/12 03:19:03;;;;;;;3.78;1.73;;;;;;;11.69;75.56;96636.47;5094054;28;20065;-70
2023/09/12 03:21:30;;;;;;;5.03;1.60;;;;;;;11.71;75.65;96647.72;5093984;28;20551;-66
2023/09/12 03:23:57;;;;;;;2.63;1.42;;;;;;;11.76;75.56;96639.69;5093926;28;20545;-70
2023/09/12 03:26:24;;;;;;;1.42;1.23;;;;;;;11.74;75.20;96642.38;5093840;28;20044;-67
2023/09/12 03:28:52;;;;;;;2.47;1.63;;;;;;;11.71;74.98;96646.91;5093862;28;20054;-64
2023/09/12 03:31:20;;;;;;;3.40;1.48;;;;;;;11.67;74.95;96653.16;5093847;28;20169;-64
2023/09/12 03:33:49;;;;;;;1.73;1.63;;;;;;;11.67;75.79;96647.91;5093695;28;20484;-68
2023/09/12 03:36:17;;;;;;;2.10;1.50;;;;;;;11.72;75.86;96649.47;5093707;28;20504;-65
2023/09/12 03:38:44;;;;;;;3.85;1.70;;;;;;;11.73;75.12;96652.91;5093719;28;20044;-73
2023/09/12 03:41:11;;;;;;;1.60;1.35;;;;;;;11.69;74.39;96646.97;5093778;28;20076;-68
2023/09/12 03:43:39;;;;;;;3.53;1.60;;;;;;;11.62;74.15;96643.72;5093655;28;20054;-70
2023/09/12 03:46:07;;;;;;;5.97;1.45;;;;;;;11.65;74.01;96644.53;5093788;28;20070;-70
2023/09/12 03:48:36;;;;;;;1.92;1.27;;;;;;;11.63;74.14;96652.44;5093566;28;20060;-66
2023/09/12 03:51:05;;;;;;;2.33;1.67;;;;;;;11.66;75.17;96648.84;5093723;28;20044;-68
2023/09/12 03:53:32;;;;;;;2.53;1.60;;;;;;;11.66;75.21;96648.84;5092919;28;20048;-68
2023/09/12 03:56:00;;;;;;;1.60;1.40;;;;;;;11.66;75.72;96654.09;5093442;28;20505;-70
2023/09/12 03:58:27;;;;;;;2.63;1.58;;;;;;;11.63;74.77;96649.81;5093784;28;20040;-65
2023/09/12 04:00:54;;;;;;;1.45;1.35;;;;;;;11.60;75.51;96648.19;5093666;28;20105;-68
2023/09/12 04:03:23;;;;;;;3.20;1.88;;;;;;;11.58;76.58;96650.00;5093565;28;20048;-65
2023/09/12 04:05:51;;;;;;;2.85;1.52;;;;;;;11.61;76.48;96654.25;5093374;28;20524;-68
2023/09/12 04:08:18;;;;;;;2.47;1.63;;;;;;;11.63;76.26;96653.28;5093309;28;20044;-70
2023/09/12 04:10:45;;;;;;;1.95;1.40;;;;;;;11.65;76.45;96655.84;5093398;28;20547;-69
2023/09/12 04:13:13;;;;;;;2.65;1.77;;;;;;;11.69;76.29;96654.81;5093437;28;20126;-68
2023/09/12 04:15:40;;;;;;;1.85;1.42;;;;;;;11.70;76.06;96651.28;5093044;28;20143;-67
2023/09/12 04:18:09;;;;;;;4.25;1.70;;;;;;;11.78;75.80;96657.97;5093225;28;20055;-64
2023/09/12 04:20:37;;;;;;;1.67;1.40;;;;;;;11.84;75.83;96660.34;5093221;28;20048;-68
2023/09/12 04:23:05;;;;;;;3.08;1.60;;;;;;;11.90;75.69;96657.47;5093236;28;20504;-73
2023/09/12 04:25:33;;;;;;;2.03;1.42;;;;;;;11.93;75.54;96657.34;5093147;28;20485;-67
2023/09/12 04:28:00;;;;;;;1.83;1.50;;;;;;;11.99;75.70;96656.22;5093125;28;20117;-67
2023/09/12 04:30:27;;;;;;;2.15;1.48;;;;;;;12.06;74.86;96660.31;5093049;28;20044;-68
2023/09/12 04:32:54;;;;;;;1.88;1.35;;;;;;;12.09;74.17;96656.72;5093095;28;20048;-69
2023/09/12 04:35:22;;;;;;;3.17;1.85;;;;;;;12.14;74.67;96649.53;5092943;28;20136;-63
2023/09/12 04:37:50;;;;;;;2.58;1.20;;;;;;;12.31;74.44;96654.03;5092985;28;20044;-68
2023/09/12 04:40:17;;;;;;;2.28;1.50;;;;;;;12.70;74.18;96646.25;5093027;28;20048;-66
2023/09/12 04:42:44;;;;;;;2.53;1.40;;;;;;;13.28;72.06;96655.00;5092986;28;20044;-68
2023/09/12 04:45:11;;;;;;;1.65;1.10;;;;;;;13.95;68.82;96650.97;5092857;28;20436;-65
2023/09/12 04:47:39;;;;;;;1.73;1.25;;;;;;;14.64;67.25;96658.88;5092950;28;20489;-66
2023/09/12 04:50:07;;;;;;;1.67;1.10;;;;;;;15.42;64.81;96660.03;5092850;28;20083;-66
2023/09/12 04:52:34;;;;;;;2.50;1.20;;;;;;;16.21;61.47;96673.19;5092853;28;20051;-66
2023/09/12 04:55:03;;;;;;;1.50;1.10;;;;;;;16.98;58.98;96673.94;5092782;28;20051;-63
2023/09/12 04:57:31;;;;;;;3.83;0.90;;;;;;;17.68;57.31;96680.16;5092819;28;20147;-65
2023/09/12 04:59:58;;;;;;;1.45;1.10;;;;;;;18.20;55.76;96675.06;5092771;28;20047;-65
2023/09/12 05:02:25;;;;;;;2.15;1.00;;;;;;;18.78;54.22;96684.44;5092606;28;20047;-64
2023/09/12 05:04:53;;;;;;;1.83;1.00;;;;;;;19.34;53.69;96685.88;5094865;28;20044;-65
2023/09/12 05:07:20;;;;;;;2.35;1.40;;;;;;;19.91;51.86;96680.06;5096645;28;20052;-65
2023/09/12 05:09:47;;;;;;;2.45;1.02;;;;;;;20.43;50.93;96687.75;5096277;28;20044;-65
2023/09/12 05:12:16;;;;;;;3.00;1.00;;;;;;;20.96;49.71;96678.44;5096461;28;20044;-64
2023/09/12 05:14:43;;;;;;;1.00;0.90;;;;;;;21.44;48.23;96679.16;5096440;28;20043;-73
2023/09/12 05:17:10;;;;;;;3.35;1.10;;;;;;;21.86;47.40;96677.63;5096347;28;20083;-73
2023/09/12 05:19:37;;;;;;;2.15;1.35;;;;;;;22.33;46.60;96671.97;5096383;28;20093;-69
2023/09/12 05:22:04;;;;;;;1.65;0.95;;;;;;;22.87;45.51;96677.25;5096282;28;20062;-66
2023/09/12 05:24:31;;;;;;;1.00;0.82;;;;;;;23.37;43.92;96681.00;5096240;28;20052;-70
2023/09/12 05:26:58;;;;;;;2.92;1.15;;;;;;;23.74;43.94;96679.53;5096187;28;20055;-69
2023/09/12 05:29:28;;;;;;;1.80;1.20;;;;;;;24.28;43.06;96681.00;5096193;28;20050;-66
2023/09/12 05:31:55;;;;;;;2.38;1.25;;;;;;;24.73;41.90;96690.22;5096284;28;20123;-63
2023/09/12 05:34:22;;;;;;;1.92;1.10;;;;;;;25.30;41.34;96680.50;5096139;28;20043;-65
2023/09/12 05:36:49;;;;;;;1.42;1.30;;;;;;;25.91;40.19;96688.09;5096057;28;20048;-64
2023/09/12 05:39:16;;;;;;;2.95;1.10;;;;;;;26.36;39.06;96684.50;5095968;28;20708;-65
2023/09/12 05:41:43;;;;;;;3.00;1.13;;;;;;;26.69;38.19;96681.22;5095945;28;20045;-67
2023/09/12 05:44:12;;;;;;;1.45;1.05;;;;;;;27.11;37.92;96678.81;5095867;28;20060;-65
2023/09/12 05:46:41;;;;;;;1.23;1.10;;;;;;;27.43;37.11;96679.97;5096155;28;20056;-66
2023/09/12 05:49:08;;;;;;;1.60;0.90;;;;;;;27.73;36.62;96680.44;5095874;28;20485;-68
2023/09/12 05:51:35;;;;;;;4.20;1.42;;;;;;;28.08;36.15;96680.31;5095755;28;20047;-62
2023/09/12 05:54:03;;;;;;;4.00;1.00;;;;;;;28.25;35.61;96681.19;5095767;28;20482;-63
2023/09/12 05:56:30;;;;;;;1.58;1.00;;;;;;;28.46;35.26;96687.94;5095644;28;20051;-69
2023/09/12 05:58:57;;;;;;;1.15;0.90;;;;;;;28.60;35.23;96689.09;5095832;28;20048;-69
2023/09/12 06:01:24;;;;;;;2.28;1.10;;;;;;;28.83;34.34;96684.88;5095667;28;20052;-67
2023/09/12 06:03:53;;;;;;;3.78;1.27;;;;;;;29.00;34.30;96688.41;5095497;28;20080;-65
2023/09/12 06:06:21;;;;;;;4.10;1.02;;;;;;;29.18;33.95;96693.56;5095473;28;20052;-67
2023/09/12 06:08:47;;;;;;;2.70;1.02;;;;;;;29.36;33.88;96690.66;5095218;28;20044;-67
2023/09/12 06:11:15;;;;;;;1.63;1.25;;;;;;;29.45;33.84;96686.06;5095344;28;20054;-64
2023/09/12 06:13:42;;;;;;;4.28;1.38;;;;;;;29.47;33.53;96689.41;5095318;28;20080;-65
2023/09/12 06:16:09;;;;;;;3.42;1.10;;;;;;;29.43;33.16;96685.38;5094502;28;20059;-63
2023/09/12 06:18:36;;;;;;;1.27;1.00;;;;;;;29.37;33.56;96686.94;5095298;28;20043;-64
2023/09/12 06:21:08;;;;;;;1.75;1.05;;;;;;;29.41;33.54;96698.22;5095201;28;20071;-68
2023/09/12 06:23:35;;;;;;;3.22;1.20;;;;;;;29.38;33.81;96695.88;5095360;28;20097;-66
2023/09/12 06:26:03;;;;;;;3.72;1.38;;;;;;;29.24;34.11;96692.03;5095112;28;20056;-67
2023/09/12 06:28:31;;;;;;;1.33;0.98;;;;;;;29.22;33.69;96699.44;5095089;28;20482;-66
2023/09/12 06:30:58;;;;;;;3.45;1.10;;;;;;;29.21;33.96;96698.63;5095041;28;20055;-63
2023/09/12 06:33:26;;;;;;;2.08;1.10;;;;;;;29.31;33.75;96692.19;5095003;28;20048;-64
2023/09/12 06:35:54;;;;;;;4.10;0.90;;;;;;;29.28;33.46;96695.22;5094800;28;20494;-64
2023/09/12 06:38:24;;;;;;;5.05;1.10;;;;;;;29.28;33.34;96695.22;5094879;28;20557;-68
2023/09/12 06:40:51;;;;;;;3.90;1.33;;;;;;;29.33;33.39;96693.69;5094854;28;20413;-65
2023/09/12 06:43:18;;;;;;;2.80;1.30;;;;;;;29.44;33.07;96691.63;5094788;28;20052;-64
2023/09/12 06:45:46;;;;;;;3.53;1.00;;;;;;;29.43;33.03;96692.66;5094750;28;20044;-67
2023/09/12 06:48:13;;;;;;;2.85;0.98;;;;;;;29.40;33.10;96699.22;5094533;28;20409;-64
2023/09/12 06:50:41;;;;;;;1.92;1.10;;;;;;;29.61;32.10;96689.72;5094524;28;20052;-69
2023/09/12 06:53:09;;;;;;;4.38;1.40;;;;;;;29.79;31.65;96696.72;5094468;28;20081;-64
2023/09/12 06:55:38;;;;;;;2.40;0.90;;;;;;;29.81;31.09;96702.75;5094619;28;20047;-67
2023/09/12 06:58:05;;;;;;;2.85;1.40;;;;;;;29.86;31.52;96706.59;5094440;28;20047;-68
2023/09/12 07:00:33;;;;;;;3.22;1.17;;;;;;;29.92;30.96;96702.38;5094591;28;20076;-65
2023/09/12 07:03:00;;;;;;;4.30;1.10;;;;;;;29.87;30.62;96711.00;5094350;28;20517;-65
2023/09/12 07:05:27;;;;;;;3.88;1.23;;;;;;;29.88;31.09;96706.41;5094257;28;20498;-64
2023/09/12 07:07:54;;;;;;;2.38;0.90;;;;;;;29.84;30.77;96703.25;5093895;28;20490;-64
2023/09/12 07:10:22;;;;;;;2.60;1.73;;;;;;;29.93;30.59;96706.75;5094219;28;20485;-66
2023/09/12 07:12:50;;;;;;;3.22;1.27;;;;;;;30.00;30.68;96698.75;5094122;28;20048;-62
2023/09/12 07:15:17;;;;;;;3.60;1.42;;;;;;;29.93;31.08;96703.19;5094288;28;20044;-65
2023/09/12 07:17:45;;;;;;;2.08;1.20;;;;;;;29.92;30.70;96705.06;5094134;28;20489;-63
2023/09/12 07:20:12;;;;;;;8.48;1.20;;;;;;;29.95;30.71;96707.38;5094031;28;20143;-68
2023/09/12 07:22:41;;;;;;;3.90;1.27;;;;;;;30.14;30.51;96702.56;5094040;28;20058;-67
2023/09/12 07:25:11;;;;;;;1.95;1.20;;;;;;;29.99;30.55;96697.94;5093983;28;20048;-63
2023/09/12 07:27:38;;;;;;;;;;;;;;;29.95;29.44;96690.38;5093479;28;20047;-64
2023/09/12 07:30:08;;;;;;;4.00;1.20;;;;;;;30.05;30.22;96692.84;5093899;28;19924;-67
2023/09/12 07:32:35;;;;;;;3.63;1.17;;;;;;;30.18;30.40;96693.13;5093932;28;20048;-65
2023/09/12 07:35:03;;;;;;;1.77;1.20;;;;;;;30.09;29.79;96694.16;5093879;28;20451;-65
2023/09/12 07:37:30;;;;;;;2.05;1.27;;;;;;;30.13;29.96;96701.72;5093683;28;20055;-66
2023/09/12 07:39:57;;;;;;;4.93;1.30;;;;;;;30.29;29.73;96705.34;5093653;28;20048;-62
2023/09/12 07:42:24;;;;;;;3.95;1.50;;;;;;;30.35;29.60;96699.25;5093592;28;20051;-65
2023/09/12 07:44:52;;;;;;;5.72;1.20;;;;;;;30.57;28.82;96702.09;5093640;28;20044;-68
2023/09/12 07:47:20;;;;;;;4.70;1.10;;;;;;;30.60;29.03;96703.56;5093635;28;20083;-63
2023/09/12 07:49:54;;;;;;;3.15;1.30;;;;;;;30.44;29.14;96700.03;5093579;28;20490;-65
2023/09/12 07:52:22;;;;;;;1.30;1.15;;;;;;;30.32;29.60;96699.59;5093511;28;20101;-67
2023/09/12 07:54:52;;;;;;;3.28;1.52;;;;;;;30.12;29.96;96701.88;5093539;28;20066;-62
2023/09/12 07:57:19;;;;;;;;;;;;;;;30.21;29.55;96695.47;5093749;28;20054;-65
2023/09/12 07:59:46;;;;;;;1.63;1.13;;;;;;;30.41;30.15;96694.13;5093324;28;20366;-68
2023/09/12 08:02:13;;;;;;;7.80;1.40;;;;;;;30.62;29.55;96688.91;5093368;28;20514;-64
2023/09/12 08:04:42;;;;;;;1.75;1.08;;;;;;;30.56;28.59;96695.03;5093428;28;20413;-64
2023/09/12 08:07:09;;;;;;;3.80;1.48;;;;;;;30.04;29.44;96685.78;5093423;28;20043;-68
2023/09/12 08:09:51;;;;;;;1.20;1.10;;;;;;;29.82;30.72;96681.03;5093204;28;20044;-66
2023/09/12 08:12:18;;;;;;;5.18;1.55;;;;;;;29.98;30.18;96685.47;5093229;28;20044;-65
2023/09/12 08:14:45;;;;;;;4.35;1.20;;;;;;;29.86;29.67;96685.03;5093201;28;20448;-68
2023/09/12 08:17:13;;;;;;;3.05;1.60;;;;;;;30.08;30.29;96679.84;5093119;28;20489;-63
2023/09/12 08:19:42;;;;;;;2.20;1.30;;;;;;;29.58;30.36;96681.97;5093134;28;20143;-67
2023/09/12 08:22:10;;;;;;;2.83;1.52;;;;;;;29.31;30.41;96692.19;5093300;28;20083;-67
2023/09/12 08:24:37;;;;;;;6.40;1.67;;;;;;;29.45;30.81;96677.13;5093153;28;20048;-61
2023/09/12 08:27:05;;;;;;;3.83;1.20;;;;;;;29.58;31.12;96672.06;5093157;28;20444;-64
2023/09/12 08:29:33;;;;;;;3.40;1.30;;;;;;;29.71;31.39;96674.16;5093049;28;20094;-65
2023/09/12 08:32:00;;;;;;;5.43;1.70;;;;;;;29.79;30.47;96678.69;5093084;28;20080;-65
2023/09/12 08:34:27;;;;;;;2.50;1.50;;;;;;;30.06;29.94;96681.03;5093037;28;20048;-67
2023/09/12 08:36:56;;;;;;;6.95;1.70;;;;;;;30.33;30.07;96679.69;5092899;28;20062;-69
2023/09/12 08:39:25;;;;;;;3.22;1.45;;;;;;;30.31;29.89;96672.81;5094418;28;20051;-62
2023/09/12 08:41:54;;;;;;;4.10;1.85;;;;;;;30.19;30.56;96667.00;5097176;28;20417;-68
2023/09/12 08:44:21;;;;;;;5.05;1.55;;;;;;;30.23;30.63;96669.16;5097132;28;20055;-62
2023/09/12 08:46:49;;;;;;;2.47;1.52;;;;;;;30.41;30.53;96669.84;5097046;28;20044;-67
2023/09/12 08:49:17;;;;;;;4.82;1.90;;;;;;;30.51;30.31;96665.88;5096934;28;20438;-64
2023/09/12 08:51:44;;;;;;;6.68;2.20;;;;;;;30.56;30.31;96665.34;5097070;28;20044;-66
2023/09/12 08:54:13;;;;;;;4.97;2.25;;;;;;;30.58;30.06;96660.59;5097030;28;20055;-64
2023/09/12 08:56:43;;;;;;;5.63;1.77;;;;;;;30.50;30.27;96669.63;5096805;28;20051;-65
2023/09/12 08:59:11;;;;;;;2.70;1.65;;;;;;;30.42;29.84;96669.66;5096780;28;20157;-66
2023/09/12 09:01:39;;;;;;;7.78;2.00;;;;;;;30.36;30.07;96665.00;5096845;28;20056;-65
2023/09/12 09:04:07;;;;;;;4.47;2.10;;;;;;;30.32;30.75;96663.69;5096679;28;20044;-65
2023/09/12 09:06:37;;;;;;;3.90;1.73;;;;;;;30.44;30.68;96666.78;5096700;28;20059;-65
2023/09/12 09:09:08;;;;;;;6.95;2.00;;;;;;;30.20;30.65;96661.44;5096467;28;20093;-66
2023/09/12 09:11:37;;;;;;;8.73;2.10;;;;;;;30.16;30.56;96667.34;5096514;28;20051;-65
2023/09/12 09:14:04;;;;;;;3.05;1.65;;;;;;;30.10;30.61;96658.09;5096576;28;20044;-65
2023/09/12 09:16:32;;;;;;;2.83;1.90;;;;;;;29.95;30.94;96663.44;5096398;28;20040;-66
2023/09/12 09:19:00;;;;;;;5.25;2.22;;;;;;;29.99;31.21;96659.34;5096524;28;20040;-66
2023/09/12 09:21:30;;;;;;;5.35;1.77;;;;;;;30.04;30.31;96658.81;5096323;28;20490;-66
2023/09/12 09:24:00;;;;;;;6.75;1.92;;;;;;;30.10;30.69;96650.84;5096335;28;20043;-65
2023/09/12 09:26:44;;;;;;;8.77;1.70;;;;;;;29.88;30.16;96666.00;5096384;28;20135;-63
2023/09/12 09:29:14;;;;;;;4.47;2.05;;;;;;;29.45;31.54;96656.44;5096339;28;20131;-66
2023/09/12 09:31:42;;;;;;;4.85;2.10;;;;;;;29.59;31.21;96656.75;5096172;28;20521;-64
2023/09/12 09:34:14;;;;;;;7.00;1.92;;;;;;;29.73;31.40;96655.13;5096192;28;20044;-61
2023/09/12 09:36:45;;;;;;;3.95;2.30;;;;;;;29.83;30.75;96654.91;5095986;28;20055;-67
2023/09/12 09:39:14;;;;;;;7.13;2.03;;;;;;;29.31;31.08;96658.00;5096022;28;20485;-61
2023/09/12 09:41:43;;;;;;;2.90;1.88;;;;;;;29.16;32.16;96647.13;5096095;28;20056;-62
2023/09/12 09:44:10;;;;;;;4.10;2.17;;;;;;;29.28;32.42;96646.75;5095895;28;20401;-63
2023/09/12 09:46:38;;;;;;;6.82;2.08;;;;;;;29.38;32.43;96645.50;5095865;28;20040;-61
2023/09/12 09:49:07;;;;;;;5.93;2.42;;;;;;;29.41;31.48;96648.88;5095855;28;20056;-66
2023/09/12 09:51:43;;;;;;;3.67;1.90;;;;;;;29.23;30.97;96652.66;5094734;28;20083;-67
2023/09/12 09:54:10;;;;;;;6.07;2.15;;;;;;;29.18;31.46;96647.81;5095870;28;20048;-64
2023/09/12 09:56:48;;;;;;;4.82;2.22;;;;;;;29.23;31.82;96644.59;5095676;28;20044;-65
2023/09/12 09:59:17;;;;;;;7.45;2.17;;;;;;;29.22;32.12;96646.44;5095644;28;20044;-63
2023/09/12 10:01:46;;;;;;;6.80;1.85;;;;;;;29.06;32.97;96650.03;5095556;28;20048;-65
2023/09/12 10:04:13;;;;;;;4.50;2.20;;;;;;;29.09;32.84;96654.22;5095568;28;20052;-64
2023/09/12 10:06:43;;;;;;;4.47;2.50;;;;;;;29.31;31.69;96644.53;5095646;28;20044;-60
2023/09/12 10:09:13;;;;;;;6.05;2.08;;;;;;;29.45;31.95;96636.72;5095320;28;20147;-61
2023/09/12 10:11:42;;;;;;;5.10;1.85;;;;;;;29.07;31.91;96637.41;5095514;28;20048;-66
2023/09/12 10:14:12;;;;;;;12.30;2.60;;;;;;;28.76;33.74;96638.97;5095511;28;20084;-65
2023/09/12 10:16:45;;;;;;;7.28;2.13;;;;;;;28.25;32.61;96630.09;5095340;28;20041;-63
2023/09/12 10:19:17;;;;;;;9.60;2.30;;;;;;;28.28;34.29;96633.44;5095246;28;20054;-62
2023/09/12 10:21:50;;;;;;;6.38;2.10;;;;;;;28.53;34.17;96633.47;5095384;28;20101;-65
2023/09/12 10:24:17;;;;;;;8.27;2.00;;;;;;;28.78;33.78;96622.66;5095117;28;20055;-63
2023/09/12 10:26:45;;;;;;;6.68;2.28;;;;;;;28.88;32.82;96626.84;5095147;28;20131;-68
2023/09/12 10:29:16;;;;;;;2.00;1.80;;;;;;;29.03;34.21;96623.44;5095164;28;20052;-66
2023/09/12 10:31:43;;;;;;;5.93;2.20;;;;;;;29.12;32.36;96619.72;5095062;28;20044;-65
2023/09/12 10:34:15;;;;;;;4.72;2.17;;;;;;;29.11;32.95;96620.72;5095148;28;20070;-65
2023/09/12 10:36:43;;;;;;;7.20;2.33;;;;;;;29.28;32.44;96609.88;5094933;28;20485;-62
2023/09/12 10:39:11;;;;;;;6.35;2.50;;;;;;;29.47;31.99;96619.38;5094920;28;20100;-65
2023/09/12 10:41:40;;;;;;;5.57;2.42;;;;;;;29.44;32.03;96613.53;5094843;28;20123;-63
2023/09/12 10:44:11;;;;;;;6.15;2.28;;;;;;;29.29;31.50;96619.66;5094800;28;20052;-63
2023/09/12 10:46:40;;;;;;;11.18;2.58;;;;;;;29.33;32.17;96617.44;5094827;28;20579;-65
2023/09/12 10:49:10;;;;;;;8.55;2.17;;;;;;;29.39;32.15;96611.34;5094722;28;20044;-65
2023/09/12 10:51:40;;;;;;;8.43;2.53;;;;;;;29.51;32.16;96614.47;5094671;28;20046;-69
2023/09/12 10:54:08;;;;;;;6.32;2.30;;;;;;;29.55;31.75;96607.75;5094469;28;20494;-65
2023/09/12 10:56:36;;;;;;;5.15;2.28;;;;;;;29.77;31.50;96610.66;5094427;28;20097;-63
2023/09/12 10:59:14;;;;;;;9.07;2.45;;;;;;;29.83;30.87;96603.72;5094357;28;20051;-67
2023/09/12 11:01:45;;;;;;;8.68;2.08;;;;;;;29.79;31.61;96602.41;5094342;28;20055;-62
2023/09/12 11:04:34;;;;;;;8.40;2.35;;;;;;;29.69;31.37;96606.16;5094484;28;20058;-66
2023/09/12 11:07:02;;;;;;;4.32;2.50;;;;;;;29.56;31.14;96603.22;5094271;28;20089;-62
2023/09/12 11:09:29;;;;;;;2.75;2.03;;;;;;;29.39;31.73;96596.03;5094158;28;20408;-65
2023/09/12 11:11:59;;;;;;;9.90;2.45;;;;;;;29.47;31.34;96591.63;5094319;28;20127;-65
2023/09/12 11:14:27;;;;;;;5.47;2.88;;;;;;;29.63;31.80;96590.72;5094356;28;20044;-63
2023/09/12 11:17:28;;;;;;;9.15;2.50;;;;;;;29.75;31.68;96581.19;5094234;28;20052;-63
2023/09/12 11:20:09;;;;;;;7.47;2.30;;;;;;;29.93;30.90;96584.59;5094122;28;20048;-64
2023/09/12 11:22:39;;;;;;;5.45;2.20;;;;;;;30.02;29.80;96578.97;5093978;28;20050;-63
2023/09/12 11:25:18;;;;;;;5.82;2.53;;;;;;;30.07;30.96;96572.19;5093980;28;20048;-63
2023/09/12 11:28:04;;;;;;;8.68;2.55;;;;;;;29.96;29.90;96573.44;5094019;28;20043;-66
2023/09/12 11:30:32;;;;;;;9.85;2.17;;;;;;;29.79;31.20;96570.88;5094057;28;20059;-66
2023/09/12 11:33:01;;;;;;;6.97;2.20;;;;;;;29.82;30.49;96572.38;5093988;28;20044;-67
2023/09/12 11:35:29;;;;;;;5.03;2.13;;;;;;;29.82;30.91;96566.97;5094171;28;20107;-61
2023/09/12 11:37:58;;;;;;;8.25;2.40;;;;;;;29.68;30.61;96572.16;5093746;28;20059;-64
2023/09/12 11:40:26;;;;;;;7.93;2.25;;;;;;;29.52;31.41;96565.81;5093800;28;20047;-66